메인 페이지
METAR-TAF:

METAR-TAF

공항 :

엘살바도르 국제공항

엘살바도르, 엘살바도르

위도: 13-26N, 경도: 089-03W, 고도: 25m

현재 날씨관측

예보는 24분 전, 16:50시(UTC)에 발표되었습니다.
4kt풍과 풍을 오가는
온도 32°C
습도 52%
기압 1012 hPa
시정 10km 이상
고도 4300ft 상공 구름 조금

METAR: MSLP 141650Z 08004KT 010V170 9999 FEW043 32/21 Q1012 A2988 NOSIG

시각: 11:14 (17:14 UTC)

예보

예보는 7 시간 49분 전, 09:25시(UTC)에 발표되었습니다.
예보 대상 시간: 14일 12시부터 15일 12시까지 (UTC)
동북동6kt
시정 10km 이상
1500m 미만 상공 구름 및 적란운 없음
14일 1800시부터 (UTC)
남서8kt
시정 10km 이상
고도 6000ft 상공 구름 보통
15일 0100시부터 (UTC)
여러 방향의 바람 2kt
고도 7000ft 상공 구름 조금
15일 0600시부터 (UTC)
시정 10km 이상
1500m 미만 상공 구름 및 적란운 없음

TAF: MSLP 140925Z 1412/1512 07006KT CAVOK TX33/1418Z TN23/1510Z FM141800 23008KT 9999 SCT060 FM150100 VRB02KT FEW070 FM150600 CAVOK

4,000개 이상의 공항 관측 자료 및 예보 (METAR 및 TAF 보고).

지도상에서 검색 가능한 기상관측소가 노란 점과 빨간 점으로 표시되어 있습니다.

기상관측소 명을 보려면 표시 위로 마우스를 이동하세요.

날씨 관측과 예보를 보려면 클릭하세요.

지도 변경 : 확대하려면 엑스 표시가 있는 녹색 버튼, 축소하려면 빼기 표시가 있는 녹색 버튼, 다음 페이지의 지도를 보려면 녹색 화살표를 클릭하세요.


METAR-TAF: